Time;durP1;ratioP1;P1;durP2;ratioP2;P2;SDS_P1;SDS_P2;PMS_P1;PMS_P2;Temp;Humidity;BMP_temperature;BMP_pressure;BME280_temperature;BME280_humidity;BME280_pressure;Samples;Min_cycle;Max_cycle;Signal;HPM_P1;HPM_P2
2022/08/29 00:00:54;;;;;;;;;;;;;;;;;;5074652;28;19927;-19
2022/08/29 00:03:20;;;;;;;;;;;;;;;;;;5074649;28;19908;-18
2022/08/29 00:05:46;;;;;;;;;;;;;;;;;;5075117;28;19995;-18
2022/08/29 00:08:12;;;;;;;;;;;;;;;;;;5074543;28;20353;-18
2022/08/29 00:10:38;;;;;;;;;;;;;;;;;;5073604;28;20351;-19
2022/08/29 00:13:04;;;;;;;;;;;;;;;;;;5074399;28;19912;-19
2022/08/29 00:15:30;;;;;;;;;;;;;;;;;;5074540;28;19966;-18
2022/08/29 00:17:56;;;;;;;;;;;;;;;;;;5074538;28;19916;-19
2022/08/29 00:20:23;;;;;;;;;;;;;;;;;;5073540;28;20240;-19
2022/08/29 00:22:49;;;;;;;;;;;;;;;;;;5074715;28;20007;-20
2022/08/29 00:25:15;;;;;;;;;;;;;;;;;;5074902;28;19919;-19
2022/08/29 00:27:41;;;;;;;;;;;;;;;;;;5074385;28;19908;-19
2022/08/29 00:30:07;;;;;;;;;;;;;;;;;;5074297;28;19923;-18
2022/08/29 00:32:35;;;;;;;;;;;;;;;;;;5074257;28;20271;-18
2022/08/29 00:35:01;;;;;;;;;;;;;;;;;;5074383;28;19923;-18
2022/08/29 00:37:27;;;;;;;;;;;;;;;;;;5075061;28;19908;-19
2022/08/29 00:39:53;;;;;;;;;;;;;;;;;;5074603;28;19912;-19
2022/08/29 00:42:19;;;;;;;;;;;;;;;;;;5076939;28;19978;-19
2022/08/29 00:44:45;;;;;;;;;;;;;;;;;;5078079;28;19940;-18
2022/08/29 00:47:11;;;;;;;;;;;;;;;;;;5078339;28;19999;-18
2022/08/29 00:49:38;;;;;;;;;;;;;;;;;;5077960;28;19924;-18
2022/08/29 00:52:04;;;;;;;;;;;;;;;;;;5077894;28;20346;-19
2022/08/29 00:54:30;;;;;;;;;;;;;;;;;;5077016;28;19924;-18
2022/08/29 00:56:56;;;;;;;;;;;;;;;;;;5078133;28;19970;-19
2022/08/29 00:59:22;;;;;;;;;;;;;;;;;;5078115;28;19908;-18
2022/08/29 01:01:48;;;;;;;;;;;;;;;;;;5078212;28;19912;-18
2022/08/29 01:04:14;;;;;;;;;;;;;;;;;;5078009;28;19991;-18
2022/08/29 01:06:40;;;;;;;;;;;;;;;;;;5077692;28;19920;-19
2022/08/29 01:09:06;;;;;;;;;;;;;;;;;;5077526;28;19930;-19
2022/08/29 01:14:17;;;;;;;;;;;;;;;;;;5077870;28;20031;-18
2022/08/29 01:16:42;;;;;;;;;;;;;;;;;;5077549;28;19936;-18
2022/08/29 01:19:08;;;;;;;;;;;;;;;;;;5077536;28;19913;-18
2022/08/29 01:21:34;;;;;;;;;;;;;;;;;;5077775;28;19916;-18
2022/08/29 01:24:00;;;;;;;;;;;;;;;;;;5077601;28;20003;-18
2022/08/29 01:26:27;;;;;;;;;;;;;;;;;;5077374;28;20261;-18
2022/08/29 01:28:53;;;;;;;;;;;;;;;;;;5076275;28;19917;-19
2022/08/29 01:31:22;;;;;;;;;;;;;;;;;;5076271;28;20006;-18
2022/08/29 01:33:48;;;;;;;;;;;;;;;;;;5076454;28;19920;-18
2022/08/29 01:36:14;;;;;;;;;;;;;;;;;;5077141;28;19943;-18
2022/08/29 01:38:40;;;;;;;;;;;;;;;;;;5077102;28;19912;-18
2022/08/29 01:41:06;;;;;;;;;;;;;;;;;;5077105;28;19956;-19
2022/08/29 01:43:32;;;;;;;;;;;;;;;;;;5077524;28;19939;-18
2022/08/29 01:45:58;;;;;;;;;;;;;;;;;;5076987;28;19912;-18
2022/08/29 01:48:24;;;;;;;;;;;;;;;;;;5076837;28;19920;-19
2022/08/29 01:50:50;;;;;;;;;;;;;;;;;;5076943;28;19916;-19
2022/08/29 01:53:17;;;;;;;;;;;;;;;;;;5076889;28;19913;-19
2022/08/29 01:55:43;;;;;;;;;;;;;;;;;;5076797;28;20346;-19
2022/08/29 01:58:09;;;;;;;;;;;;;;;;;;5076690;28;19995;-19
2022/08/29 02:00:35;;;;;;;;;;;;;;;;;;5077011;28;20341;-19
2022/08/29 02:03:02;;;;;;;;;;;;;;;;;;5076587;28;19916;-19
2022/08/29 02:05:28;;;;;;;;;;;;;;;;;;5076934;28;20011;-19
2022/08/29 02:07:54;;;;;;;;;;;;;;;;;;5076482;28;19924;-18
2022/08/29 02:10:20;;;;;;;;;;;;;;;;;;5076524;28;19916;-19
2022/08/29 02:12:47;;;;;;;;;;;;;;;;;;5076419;28;19935;-19
2022/08/29 02:15:13;;;;;;;;;;;;;;;;;;5076308;28;19920;-19
2022/08/29 02:17:39;;;;;;;;;;;;;;;;;;5076349;28;19908;-18
2022/08/29 02:20:07;;;;;;;;;;;;;;;;;;5076565;28;19912;-19
2022/08/29 02:22:32;;;;;;;;;;;;;;;;;;5076464;28;19935;-19
2022/08/29 02:24:58;;;;;;;;;;;;;;;;;;5076201;28;19908;-19
2022/08/29 02:27:24;;;;;;;;;;;;;;;;;;5076120;28;20240;-18
2022/08/29 02:29:51;;;;;;;;;;;;;;;;;;5075058;28;19912;-19
2022/08/29 02:32:17;;;;;;;;;;;;;;;;;;5075851;28;19950;-19
2022/08/29 02:34:44;;;;;;;;;;;;;;;;;;5076321;28;19916;-18
2022/08/29 02:37:10;;;;;;;;;;;;;;;;;;5076030;28;19917;-18
2022/08/29 02:39:36;;;;;;;;;;;;;;;;;;5075911;28;19912;-18
2022/08/29 02:42:01;;;;;;;;;;;;;;;;;;5075759;28;20327;-18
2022/08/29 02:44:27;;;;;;;;;;;;;;;;;;5075889;28;19908;-18
2022/08/29 02:46:53;;;;;;;;;;;;;;;;;;5076210;28;19916;-18
2022/08/29 02:49:20;;;;;;;;;;;;;;;;;;5075733;28;20359;-19
2022/08/29 02:51:46;;;;;;;;;;;;;;;;;;5075645;28;20007;-19
2022/08/29 02:54:12;;;;;;;;;;;;;;;;;;5075590;28;19952;-18
2022/08/29 02:56:38;;;;;;;;;;;;;;;;;;5075534;28;19912;-18
2022/08/29 02:59:04;;;;;;;;;;;;;;;;;;5075550;28;19980;-19
2022/08/29 03:01:30;;;;;;;;;;;;;;;;;;5075731;28;19939;-18
2022/08/29 03:03:56;;;;;;;;;;;;;;;;;;5074859;28;19908;-19
2022/08/29 03:06:22;;;;;;;;;;;;;;;;;;5075415;28;19918;-18
2022/08/29 03:08:48;;;;;;;;;;;;;;;;;;5075334;28;19912;-19
2022/08/29 03:11:14;;;;;;;;;;;;;;;;;;5075901;28;20012;-19
2022/08/29 03:13:40;;;;;;;;;;;;;;;;;;5075178;28;19916;-19
2022/08/29 03:16:06;;;;;;;;;;;;;;;;;;5075304;28;19958;-19
2022/08/29 03:18:32;;;;;;;;;;;;;;;;;;5075636;28;19948;-19
2022/08/29 03:20:58;;;;;;;;;;;;;;;;;;5075680;28;20246;-19
2022/08/29 03:23:24;;;;;;;;;;;;;;;;;;5075040;28;20372;-19
2022/08/29 03:25:50;;;;;;;;;;;;;;;;;;5075037;28;19912;-19
2022/08/29 03:28:16;;;;;;;;;;;;;;;;;;5075482;28;19916;-18
2022/08/29 03:30:42;;;;;;;;;;;;;;;;;;5074994;28;19916;-18
2022/08/29 03:33:08;;;;;;;;;;;;;;;;;;5074726;28;19924;-18
2022/08/29 03:35:34;;;;;;;;;;;;;;;;;;5074972;28;19916;-18
2022/08/29 03:38:00;;;;;;;;;;;;;;;;;;5074895;28;19916;-19
2022/08/29 03:40:26;;;;;;;;;;;;;;;;;;5074893;28;19909;-19
2022/08/29 03:42:52;;;;;;;;;;;;;;;;;;5074700;28;19912;-19
2022/08/29 03:45:18;;;;;;;;;;;;;;;;;;5074691;28;19908;-18
2022/08/29 03:47:44;;;;;;;;;;;;;;;;;;5074987;28;19922;-18
2022/08/29 03:50:10;;;;;;;;;;;;;;;;;;5074636;28;19972;-19
2022/08/29 03:52:36;;;;;;;;;;;;;;;;;;5074484;28;19913;-19
2022/08/29 03:55:05;;;;;;;;;;;;;;;;;;5074726;28;20228;-20
2022/08/29 03:57:31;;;;;;;;;;;;;;;;;;5074642;28;19909;-19
2022/08/29 03:59:58;;;;;;;;;;;;;;;;;;5073548;28;19954;-19
2022/08/29 04:05:11;;;;;;;;;;;;;;;;;;5056677;28;19928;-22
2022/08/29 04:07:38;;;;;;;;;;;;;;;;;;5056868;28;19920;-22
2022/08/29 04:10:05;;;;;;;;;;;;;;;;;;5056781;28;19940;-22
2022/08/29 04:12:35;;;;;;;;;;;;;;;;;;5038813;28;20462;-22
2022/08/29 04:15:04;;;;;;;;;;;;;;;;;;5056645;28;19949;-21
2022/08/29 04:17:34;;;;;;;;;;;;;;;;;;5080701;28;19924;-22
2022/08/29 04:20:01;;;;;;;;;;;;;;;;;;5081515;28;19923;-22
2022/08/29 04:22:28;;;;;;;;;;;;;;;;;;5062902;28;19912;-22
2022/08/29 04:24:55;;;;;;;;;;;;;;;;;;5081432;28;20274;-23
2022/08/29 04:27:22;;;;;;;;;;;;;;;;;;5081482;28;19924;-22
2022/08/29 04:29:49;;;;;;;;;;;;;;;;;;5080461;28;20354;-23
2022/08/29 04:32:20;;;;;;;;;;;;;;;;;;5080310;28;19913;-22
2022/08/29 04:34:47;;;;;;;;;;;;;;;;;;5080458;28;19913;-22
2022/08/29 04:37:14;;;;;;;;;;;;;;;;;;5062590;28;20423;-21
2022/08/29 04:39:42;;;;;;;;;;;;;;;;;;5079702;28;19966;-21
2022/08/29 04:42:11;;;;;;;;;;;;;;;;;;5080458;28;19909;-22
2022/08/29 04:47:29;;;;;;;;;;;;;;;;;;5080682;28;20400;-22
2022/08/29 04:49:56;;;;;;;;;;;;;;;;;;5080282;28;19942;-23
2022/08/29 04:52:24;;;;;;;;;;;;;;;;;;5079833;28;19920;-22
2022/08/29 04:54:52;;;;;;;;;;;;;;;;;;5080417;28;19938;-22
2022/08/29 04:57:23;;;;;;;;;;;;;;;;;;5080699;28;19912;-22
2022/08/29 04:59:50;;;;;;;;;;;;;;;;;;5079785;28;19912;-22
2022/08/29 05:02:18;;;;;;;;;;;;;;;;;;5062230;28;19908;-23
2022/08/29 05:04:46;;;;;;;;;;;;;;;;;;5062016;28;20251;-22
2022/08/29 05:07:14;;;;;;;;;;;;;;;;;;5079743;28;19924;-22
2022/08/29 05:09:44;;;;;;;;;;;;;;;;;;5079602;28;19920;-21
2022/08/29 05:12:11;;;;;;;;;;;;;;;;;;5078538;28;19963;-21
2022/08/29 05:14:39;;;;;;;;;;;;;;;;;;5079967;28;20297;-21
2022/08/29 05:17:05;;;;;;;;;;;;;;;;;;5079450;28;20270;-22
2022/08/29 05:19:33;;;;;;;;;;;;;;;;;;5079130;28;19916;-21
2022/08/29 05:22:01;;;;;;;;;;;;;;;;;;5079926;28;19956;-19
2022/08/29 05:24:30;;;;;;;;;;;;;;;;;;5062572;28;19984;-18
2022/08/29 05:26:59;;;;;;;;;;;;;;;;;;5061145;28;19908;-26
2022/08/29 05:29:26;;;;;;;;;;;;;;;;;;5080215;28;19939;-20
2022/08/29 05:31:53;;;;;;;;;;;;;;;;;;5061990;28;19909;-20
2022/08/29 05:34:21;;;;;;;;;;;;;;;;;;5062246;28;19935;-20
2022/08/29 05:36:49;;;;;;;;;;;;;;;;;;5061115;28;20205;-20
2022/08/29 05:39:24;;;;;;;;;;;;;;;;;;5078820;28;19919;-20
2022/08/29 05:41:54;;;;;;;;;;;;;;;;;;5079115;28;19969;-20
2022/08/29 05:44:21;;;;;;;;;;;;;;;;;;5061482;28;19913;-20
2022/08/29 05:46:49;;;;;;;;;;;;;;;;;;5060859;28;20335;-20
2022/08/29 05:49:17;;;;;;;;;;;;;;;;;;5078927;28;19981;-22
2022/08/29 05:51:45;;;;;;;;;;;;;;;;;;5078701;28;19936;-23
2022/08/29 05:54:12;;;;;;;;;;;;;;;;;;5078718;28;20373;-22
2022/08/29 05:56:41;;;;;;;;;;;;;;;;;;5061444;28;20326;-31
2022/08/29 05:59:13;;;;;;;;;;;;;;;;;;5061274;28;19913;-22
2022/08/29 06:01:42;;;;;;;;;;;;;;;;;;5060410;28;19966;-21
2022/08/29 06:04:09;;;;;;;;;;;;;;;;;;5077959;28;20226;-22
2022/08/29 06:06:37;;;;;;;;;;;;;;;;;;5078130;28;19916;-23
2022/08/29 06:09:09;;;;;;;;;;;;;;;;;;5078696;28;19928;-22
2022/08/29 06:11:41;;;;;;;;;;;;;;;;;;5078126;28;19920;-22
2022/08/29 06:14:07;;;;;;;;;;;;;;;;;;5078182;28;19944;-21
2022/08/29 06:16:35;;;;;;;;;;;;;;;;;;5060645;28;19987;-22
2022/08/29 06:19:03;;;;;;;;;;;;;;;;;;5077996;28;19924;-22
2022/08/29 06:21:30;;;;;;;;;;;;;;;;;;5060593;28;19913;-23
2022/08/29 06:23:59;;;;;;;;;;;;;;;;;;5077710;28;19916;-23
2022/08/29 06:26:26;;;;;;;;;;;;;;;;;;5078099;28;19939;-22
2022/08/29 06:28:53;;;;;;;;;;;;;;;;;;5059601;28;19936;-20
2022/08/29 06:31:20;;;;;;;;;;;;;;;;;;5078358;28;19916;-22
2022/08/29 06:33:50;;;;;;;;;;;;;;;;;;5077509;28;20003;-20
2022/08/29 06:36:19;;;;;;;;;;;;;;;;;;5058977;28;19920;-19
2022/08/29 06:38:47;;;;;;;;;;;;;;;;;;5076851;28;19979;-23
2022/08/29 06:41:15;;;;;;;;;;;;;;;;;;5059785;28;19912;-21
2022/08/29 06:43:44;;;;;;;;;;;;;;;;;;5059791;28;20270;-21
2022/08/29 06:46:16;;;;;;;;;;;;;;;;;;5077350;28;19927;-23
2022/08/29 06:48:45;;;;;;;;;;;;;;;;;;5078255;28;19923;-20
2022/08/29 06:51:13;;;;;;;;;;;;;;;;;;5077982;28;19920;-21
2022/08/29 06:53:40;;;;;;;;;;;;;;;;;;5077930;28;19931;-23
2022/08/29 06:58:52;;;;;;;;;;;;;;;;;;5077965;28;20006;-21
2022/08/29 07:01:20;;;;;;;;;;;;;;;;;;5077113;28;19912;-20
2022/08/29 07:03:47;;;;;;;;;;;;;;;;;;5077556;28;19919;-21
2022/08/29 07:06:18;;;;;;;;;;;;;;;;;;5077700;28;19939;-22
2022/08/29 07:08:47;;;;;;;;;;;;;;;;;;5079296;28;20351;-21
2022/08/29 07:11:16;;;;;;;;;;;;;;;;;;5077701;28;19966;-23
2022/08/29 07:13:43;;;;;;;;;;;;;;;;;;5076844;28;19912;-21
2022/08/29 07:16:11;;;;;;;;;;;;;;;;;;5076921;28;20226;-21
2022/08/29 07:18:39;;;;;;;;;;;;;;;;;;5077237;28;19913;-23
2022/08/29 07:21:07;;;;;;;;;;;;;;;;;;5077480;28;19935;-22
2022/08/29 07:23:36;;;;;;;;;;;;;;;;;;5078380;28;19908;-21
2022/08/29 07:26:04;;;;;;;;;;;;;;;;;;5077157;28;19928;-21
2022/08/29 07:28:33;;;;;;;;;;;;;;;;;;5078510;28;19912;-22
2022/08/29 07:31:01;;;;;;;;;;;;;;;;;;5060702;28;19923;-21
2022/08/29 07:36:20;;;;;;;;;;;;;;;;;;5077417;28;20326;-21
2022/08/29 07:38:47;;;;;;;;;;;;;;;;;;5076127;28;19912;-22
2022/08/29 07:41:16;;;;;;;;;;;;;;;;;;5077901;28;19924;-21
2022/08/29 07:43:51;;;;;;;;;;;;;;;;;;5077614;28;19908;-22
2022/08/29 07:46:20;;;;;;;;;;;;;;;;;;5076846;28;19952;-20
2022/08/29 07:48:51;;;;;;;;;;;;;;;;;;5060899;28;20023;-21
2022/08/29 07:51:22;;;;;;;;;;;;;;;;;;5059120;28;19908;-20
2022/08/29 07:53:50;;;;;;;;;;;;;;;;;;5077038;28;20250;-20
2022/08/29 07:56:18;;;;;;;;;;;;;;;;;;5078063;28;19948;-21
2022/08/29 07:58:54;;;;;;;;;;;;;;;;;;5060305;28;19912;-20
2022/08/29 08:01:21;;;;;;;;;;;;;;;;;;5075813;28;19970;-20
2022/08/29 08:03:55;;;;;;;;;;;;;;;;;;5077048;28;19909;-20
2022/08/29 08:06:24;;;;;;;;;;;;;;;;;;5059514;28;20269;-21
2022/08/29 08:39:51;;;;;;;;;;;;;;;;;;5074269;28;20020;-25
2022/08/29 08:42:17;;;;;;;;;;;;;;;;;;5073387;28;19913;-24
2022/08/29 08:44:48;;;;;;;;;;;;;;;;;;5075755;28;19966;-24
2022/08/29 08:50:05;;;;;;;;;;;;;;;;;;5078283;28;19946;-24
2022/08/29 08:55:48;;;;;;;;;;;;;;;;;;5077972;28;19973;-24
2022/08/29 08:58:13;;;;;;;;;;;;;;;;;;5073863;28;19920;-24
2022/08/29 09:00:50;;;;;;;;;;;;;;;;;;5075782;28;19917;-24
2022/08/29 09:14:35;;;;;;;;;;;;;;;;;;5114490;28;19924;-25
2022/08/29 09:17:05;;;;;;;;;;;;;;;;;;5120032;28;19936;-24
2022/08/29 09:22:42;;;;;;;;;;;;;;;;;;5119283;28;19945;-24
2022/08/29 09:33:37;;;;;;;;;;;;;;;;;;5120484;28;20096;-24
2022/08/29 09:38:55;;;;;;;;;;;;;;;;;;5117249;28;19918;-24
2022/08/29 09:41:24;;;;;;;;;;;;;;;;;;5119287;28;20257;-23
2022/08/29 09:46:44;;;;;;;;;;;;;;;;;;5120133;28;20038;-24
2022/08/29 09:49:12;;;;;;;;;;;;;;;;;;5118382;28;20037;-24
2022/08/29 10:03:04;;;;;;;;;;;;;;;;;;5118629;28;19961;-24
2022/08/29 10:11:01;;;;;;;;;;;;;;;;;;5118182;28;20061;-24
2022/08/29 10:13:29;;;;;;;;;;;;;;;;;;5116211;28;20438;-24
2022/08/29 10:52:20;;;;;;;;;;;;;;;;;;5079341;28;19947;-25
2022/08/29 11:03:19;;;;;;;;;;;;;;;;;;5494117;22;19936;-23
2022/08/29 11:17:46;;;;;;;;;;;;;;;;;;5467462;22;19998;-23
2022/08/29 11:20:19;;;;;;;;;;;;;;;;;;5056495;28;20019;-24
2022/08/29 11:22:47;;;;;;;;;;;;;;;;;;5038745;28;20358;-23
2022/08/29 11:28:07;;;;;;;;;;;;;;;;;;5063944;28;19988;-23
2022/08/29 11:30:37;;;;;;;;;;;;;;;;;;5059280;28;19982;-25
2022/08/29 11:33:08;;;;;;;;;;;;;;;;;;5076513;28;19924;-23
2022/08/29 11:49:38;;;;;;;;;;;;;;;;;;5116483;28;20012;-23
2022/08/29 11:52:06;;;;;;;;;;;;;;;;;;5117326;28;20315;-23
2022/08/29 11:54:34;;;;;;;;;;;;;;;;;;5117356;28;19973;-23
2022/08/29 11:57:04;;;;;;;;;;;;;;;;;;5117021;28;19994;-23
2022/08/29 11:59:35;;;;;;;;;;;;;;;;;;5116648;28;20249;-23
2022/08/29 12:02:04;;;;;;;;;;;;;;;;;;5117714;28;19912;-23
2022/08/29 12:04:42;;;;;;;;;;;;;;;;;;5116986;28;19923;-23
2022/08/29 12:10:11;;;;;;;;;;;;;;;;;;5034033;28;19978;-23
2022/08/29 12:15:45;;;;;;;;;;;;;;;;;;5118264;28;19919;-24
2022/08/29 12:26:43;;;;;;;;;;;;;;;;;;5115467;28;19934;-23
2022/08/29 12:29:11;;;;;;;;;;;;;;;;;;5117552;28;19916;-23
2022/08/29 12:34:20;;;;;;;;;;;;;;;;;;5121564;22;20325;-24
2022/08/29 12:36:46;;;;;;;;;;;;;;;;;;5054066;28;19923;-23
2022/08/29 12:39:12;;;;;;;;;;;;;;;;;;5057944;28;19909;-23
2022/08/29 12:41:41;;;;;;;;;;;;;;;;;;5057516;28;19912;-24
2022/08/29 12:44:07;;;;;;;;;;;;;;;;;;5057435;28;19905;-24
2022/08/29 12:46:33;;;;;;;;;;;;;;;;;;5057894;28;19920;-24
2022/08/29 12:48:59;;;;;;;;;;;;;;;;;;5057763;28;19916;-25
2022/08/29 12:51:26;;;;;;;;;;;;;;;;;;5058005;28;20319;-24
2022/08/29 12:53:52;;;;;;;;;;;;;;;;;;5039890;28;19912;-24
2022/08/29 12:56:18;;;;;;;;;;;;;;;;;;5057653;28;19908;-24
2022/08/29 12:58:44;;;;;;;;;;;;;;;;;;5057556;28;20255;-24
2022/08/29 13:01:10;;;;;;;;;;;;;;;;;;5039604;28;19943;-24
2022/08/29 13:03:36;;;;;;;;;;;;;;;;;;5057246;28;19956;-24
2022/08/29 13:06:02;;;;;;;;;;;;;;;;;;5049331;28;19963;-24
2022/08/29 13:08:28;;;;;;;;;;;;;;;;;;5057744;28;20286;-24
2022/08/29 13:10:54;;;;;;;;;;;;;;;;;;5039667;28;19920;-24
2022/08/29 13:13:20;;;;;;;;;;;;;;;;;;5057348;28;19909;-23
2022/08/29 13:15:46;;;;;;;;;;;;;;;;;;5057347;28;20302;-23
2022/08/29 13:18:12;;;;;;;;;;;;;;;;;;5057056;28;19909;-24
2022/08/29 13:20:47;;;;;;;;;;;;;;;;;;5057221;28;19969;-24
2022/08/29 13:23:16;;;;;;;;;;;;;;;;;;5057138;28;19924;-24
2022/08/29 13:25:42;;;;;;;;;;;;;;;;;;5056847;28;19913;-24
2022/08/29 13:28:08;;;;;;;;;;;;;;;;;;5039331;28;19948;-24
2022/08/29 13:30:34;;;;;;;;;;;;;;;;;;5039298;28;20001;-24
2022/08/29 13:33:00;;;;;;;;;;;;;;;;;;5056622;28;19913;-24
2022/08/29 13:35:26;;;;;;;;;;;;;;;;;;5038934;28;19967;-24
2022/08/29 13:37:52;;;;;;;;;;;;;;;;;;5041941;28;19961;-24
2022/08/29 13:40:18;;;;;;;;;;;;;;;;;;5036628;28;19921;-24
2022/08/29 13:42:44;;;;;;;;;;;;;;;;;;5036627;28;19971;-24
2022/08/29 13:45:10;;;;;;;;;;;;;;;;;;5036729;28;19921;-24
2022/08/29 13:47:36;;;;;;;;;;;;;;;;;;5035858;28;19926;-24
2022/08/29 13:50:02;;;;;;;;;;;;;;;;;;5028254;28;19929;-23
2022/08/29 13:52:29;;;;;;;;;;;;;;;;;;5036624;28;19913;-24
2022/08/29 13:54:55;;;;;;;;;;;;;;;;;;5035886;28;19926;-24
2022/08/29 13:57:21;;;;;;;;;;;;;;;;;;5036326;28;19933;-24
2022/08/29 13:59:47;;;;;;;;;;;;;;;;;;5036413;28;19913;-24
2022/08/29 14:02:13;;;;;;;;;;;;;;;;;;5036125;28;19914;-24
2022/08/29 14:04:39;;;;;;;;;;;;;;;;;;5036233;28;20236;-24
2022/08/29 14:07:05;;;;;;;;;;;;;;;;;;5036531;28;19917;-23
2022/08/29 14:09:31;;;;;;;;;;;;;;;;;;5036213;28;19928;-24
2022/08/29 14:11:57;;;;;;;;;;;;;;;;;;5036135;28;19913;-24
2022/08/29 14:14:23;;;;;;;;;;;;;;;;;;5036085;28;19913;-24
2022/08/29 14:16:52;;;;;;;;;;;;;;;;;;5035586;28;19963;-24
2022/08/29 14:19:18;;;;;;;;;;;;;;;;;;5035649;28;19913;-24
2022/08/29 14:21:44;;;;;;;;;;;;;;;;;;5035648;28;20009;-24
2022/08/29 14:24:10;;;;;;;;;;;;;;;;;;5035746;28;20354;-24
2022/08/29 14:26:37;;;;;;;;;;;;;;;;;;5035871;28;19940;-24
2022/08/29 14:29:03;;;;;;;;;;;;;;;;;;5035490;28;20361;-24
2022/08/29 14:31:29;;;;;;;;;;;;;;;;;;5035858;28;19913;-24
2022/08/29 14:33:55;;;;;;;;;;;;;;;;;;5035490;28;19920;-24
2022/08/29 14:36:21;;;;;;;;;;;;;;;;;;5038399;28;19913;-23
2022/08/29 14:38:47;;;;;;;;;;;;;;;;;;5075781;28;19916;-23
2022/08/29 14:41:13;;;;;;;;;;;;;;;;;;5075597;28;20008;-23
2022/08/29 14:43:39;;;;;;;;;;;;;;;;;;5075364;28;19920;-23
2022/08/29 14:46:05;;;;;;;;;;;;;;;;;;5075379;28;19999;-23
2022/08/29 14:48:31;;;;;;;;;;;;;;;;;;5075398;28;19994;-23
2022/08/29 14:50:57;;;;;;;;;;;;;;;;;;5075458;28;19974;-23
2022/08/29 14:53:23;;;;;;;;;;;;;;;;;;5075253;28;20278;-23
2022/08/29 14:55:49;;;;;;;;;;;;;;;;;;5075364;28;19962;-23
2022/08/29 14:58:15;;;;;;;;;;;;;;;;;;5075075;28;19920;-23
2022/08/29 15:00:41;;;;;;;;;;;;;;;;;;5074209;28;19966;-23
2022/08/29 15:03:07;;;;;;;;;;;;;;;;;;5057090;28;19913;-23
2022/08/29 15:05:33;;;;;;;;;;;;;;;;;;5074937;28;19919;-23
2022/08/29 15:07:59;;;;;;;;;;;;;;;;;;5075034;28;20323;-23
2022/08/29 15:10:25;;;;;;;;;;;;;;;;;;5074693;28;19920;-23
2022/08/29 15:12:51;;;;;;;;;;;;;;;;;;5074735;28;20266;-24
2022/08/29 15:15:17;;;;;;;;;;;;;;;;;;5074715;28;20243;-23
2022/08/29 15:17:43;;;;;;;;;;;;;;;;;;5074440;28;19912;-24
2022/08/29 15:20:09;;;;;;;;;;;;;;;;;;5074713;28;19923;-24
2022/08/29 15:22:35;;;;;;;;;;;;;;;;;;5073969;28;19987;-24
2022/08/29 15:25:02;;;;;;;;;;;;;;;;;;5074039;28;20243;-24
2022/08/29 15:27:28;;;;;;;;;;;;;;;;;;5073945;28;19912;-24
2022/08/29 15:29:54;;;;;;;;;;;;;;;;;;5073945;28;19923;-23
2022/08/29 15:32:20;;;;;;;;;;;;;;;;;;5074246;28;20396;-24
2022/08/29 15:34:46;;;;;;;;;;;;;;;;;;5073834;28;20244;-24
2022/08/29 15:37:12;;;;;;;;;;;;;;;;;;5074166;28;19925;-23
2022/08/29 15:39:38;;;;;;;;;;;;;;;;;;5056752;28;19912;-24
2022/08/29 15:42:04;;;;;;;;;;;;;;;;;;5074481;28;20357;-24
2022/08/29 15:44:30;;;;;;;;;;;;;;;;;;5074411;28;20003;-24
2022/08/29 15:46:56;;;;;;;;;;;;;;;;;;5056377;28;19958;-24
2022/08/29 15:49:22;;;;;;;;;;;;;;;;;;5074604;28;19944;-23
2022/08/29 15:51:48;;;;;;;;;;;;;;;;;;5074410;28;19951;-24
2022/08/29 15:54:14;;;;;;;;;;;;;;;;;;5074562;28;19912;-24
2022/08/29 15:56:40;;;;;;;;;;;;;;;;;;5056568;28;19919;-24
2022/08/29 15:59:06;;;;;;;;;;;;;;;;;;5074274;28;19916;-24
2022/08/29 16:01:32;;;;;;;;;;;;;;;;;;5056482;28;19966;-23
2022/08/29 16:03:58;;;;;;;;;;;;;;;;;;5074173;28;20007;-24
2022/08/29 16:06:24;;;;;;;;;;;;;;;;;;5074234;28;19955;-24
2022/08/29 16:08:50;;;;;;;;;;;;;;;;;;5074418;28;19999;-24
2022/08/29 16:11:17;;;;;;;;;;;;;;;;;;5076355;28;19912;-24
2022/08/29 16:13:43;;;;;;;;;;;;;;;;;;5080807;28;19908;-24
2022/08/29 16:16:09;;;;;;;;;;;;;;;;;;5081028;28;20407;-24
2022/08/29 16:18:35;;;;;;;;;;;;;;;;;;5080750;28;20262;-24
2022/08/29 16:24:14;;;;;;;;;;;;;;;;;;5020749;28;20267;-24
2022/08/29 16:29:25;;;;;;;;;;;;;;;;;;5082449;28;20023;-24
2022/08/29 16:31:50;;;;;;;;;;;;;;;;;;5080682;28;20305;-24
2022/08/29 16:34:16;;;;;;;;;;;;;;;;;;5080631;28;19916;-24
2022/08/29 16:36:42;;;;;;;;;;;;;;;;;;5080534;28;20322;-24
2022/08/29 16:39:09;;;;;;;;;;;;;;;;;;5080725;28;19915;-24
2022/08/29 16:41:35;;;;;;;;;;;;;;;;;;5080976;28;19916;-24
2022/08/29 16:44:01;;;;;;;;;;;;;;;;;;5080721;28;19923;-24
2022/08/29 16:46:27;;;;;;;;;;;;;;;;;;5080584;28;20335;-36
2022/08/29 16:48:53;;;;;;;;;;;;;;;;;;5080920;28;20218;-24
2022/08/29 16:51:19;;;;;;;;;;;;;;;;;;5080599;28;19995;-23
2022/08/29 16:53:45;;;;;;;;;;;;;;;;;;5080671;28;19959;-24
2022/08/29 16:56:12;;;;;;;;;;;;;;;;;;5080333;28;19974;-24
2022/08/29 17:01:23;;;;;;;;;;;;;;;;;;5080872;28;19963;-24
2022/08/29 17:03:49;;;;;;;;;;;;;;;;;;5080467;28;19908;-24
2022/08/29 17:06:15;;;;;;;;;;;;;;;;;;5080794;28;19916;-24
2022/08/29 17:18:24;;;;;;;;;;;;;;;;;;5080855;28;19913;-24
2022/08/29 17:20:52;;;;;;;;;;;;;;;;;;5080232;28;20007;-24
2022/08/29 17:23:18;;;;;;;;;;;;;;;;;;5078032;28;19997;-24
2022/08/29 17:25:44;;;;;;;;;;;;;;;;;;5077057;28;19939;-24
2022/08/29 17:28:10;;;;;;;;;;;;;;;;;;5076855;28;19913;-24
2022/08/29 17:30:36;;;;;;;;;;;;;;;;;;5076667;28;19916;-24
2022/08/29 17:33:02;;;;;;;;;;;;;;;;;;5077053;28;19908;-24
2022/08/29 17:35:30;;;;;;;;;;;;;;;;;;5076728;28;20351;-24
2022/08/29 17:37:56;;;;;;;;;;;;;;;;;;5076354;28;19931;-24
2022/08/29 17:40:22;;;;;;;;;;;;;;;;;;5076718;28;19963;-24
2022/08/29 17:42:48;;;;;;;;;;;;;;;;;;5058974;28;20017;-24
2022/08/29 17:45:14;;;;;;;;;;;;;;;;;;5076343;28;20050;-24
2022/08/29 17:47:40;;;;;;;;;;;;;;;;;;5076440;28;19991;-23
2022/08/29 17:50:06;;;;;;;;;;;;;;;;;;5076374;28;19928;-24
2022/08/29 17:52:32;;;;;;;;;;;;;;;;;;5076047;28;19919;-24
2022/08/29 17:54:58;;;;;;;;;;;;;;;;;;5076032;28;19913;-24
2022/08/29 17:57:29;;;;;;;;;;;;;;;;;;5076256;28;19970;-24
2022/08/29 17:59:55;;;;;;;;;;;;;;;;;;5076176;28;19916;-24
2022/08/29 18:02:21;;;;;;;;;;;;;;;;;;5075862;28;19912;-23
2022/08/29 18:04:47;;;;;;;;;;;;;;;;;;5075950;28;19913;-23
2022/08/29 18:07:13;;;;;;;;;;;;;;;;;;5075868;28;19923;-23
2022/08/29 18:09:39;;;;;;;;;;;;;;;;;;5075682;28;19948;-23
2022/08/29 18:12:05;;;;;;;;;;;;;;;;;;5075840;28;19916;-23
2022/08/29 18:14:32;;;;;;;;;;;;;;;;;;5075560;28;19973;-23
2022/08/29 18:16:58;;;;;;;;;;;;;;;;;;5075913;28;20232;-23
2022/08/29 18:19:25;;;;;;;;;;;;;;;;;;5075615;28;19953;-23
2022/08/29 18:21:51;;;;;;;;;;;;;;;;;;5075711;28;19927;-23
2022/08/29 18:24:17;;;;;;;;;;;;;;;;;;5058154;28;20266;-23
2022/08/29 18:26:44;;;;;;;;;;;;;;;;;;5076132;28;19970;-23
2022/08/29 18:29:10;;;;;;;;;;;;;;;;;;5075873;28;20250;-23
2022/08/29 18:31:36;;;;;;;;;;;;;;;;;;5075587;28;19908;-23
2022/08/29 18:34:02;;;;;;;;;;;;;;;;;;5075536;28;19921;-23
2022/08/29 18:36:29;;;;;;;;;;;;;;;;;;5074869;28;19951;-23
2022/08/29 18:38:54;;;;;;;;;;;;;;;;;;5075756;28;20137;-23
2022/08/29 18:41:21;;;;;;;;;;;;;;;;;;5075446;28;19916;-23
2022/08/29 18:43:47;;;;;;;;;;;;;;;;;;5057728;28;19912;-23
2022/08/29 18:46:13;;;;;;;;;;;;;;;;;;5075648;28;19915;-23
2022/08/29 18:48:40;;;;;;;;;;;;;;;;;;5075191;28;20270;-23
2022/08/29 18:51:06;;;;;;;;;;;;;;;;;;5075162;28;19913;-23
2022/08/29 18:53:32;;;;;;;;;;;;;;;;;;5075205;28;20098;-23
2022/08/29 18:55:57;;;;;;;;;;;;;;;;;;5075538;28;20010;-23
2022/08/29 18:58:24;;;;;;;;;;;;;;;;;;5075278;28;19924;-23
2022/08/29 19:00:50;;;;;;;;;;;;;;;;;;5075281;28;19908;-23
2022/08/29 19:03:16;;;;;;;;;;;;;;;;;;5057631;28;20338;-23
2022/08/29 19:05:44;;;;;;;;;;;;;;;;;;5075270;28;19909;-24
2022/08/29 19:08:10;;;;;;;;;;;;;;;;;;5075237;28;19916;-24
2022/08/29 19:10:36;;;;;;;;;;;;;;;;;;5075273;28;20327;-24
2022/08/29 19:13:02;;;;;;;;;;;;;;;;;;5074970;28;19943;-24
2022/08/29 19:15:28;;;;;;;;;;;;;;;;;;5075128;28;19920;-24
2022/08/29 19:17:54;;;;;;;;;;;;;;;;;;5075043;28;19918;-24
2022/08/29 19:21:05;;;;;;;;;;;;;;;;;;5075251;28;19912;-24
2022/08/29 19:23:07;;;;;;;;;;;;;;;;;;5061003;28;20236;-24
2022/08/29 19:25:33;;;;;;;;;;;;;;;;;;5074835;28;19919;-24
2022/08/29 19:27:59;;;;;;;;;;;;;;;;;;5074949;28;19909;-23
2022/08/29 19:30:25;;;;;;;;;;;;;;;;;;5074616;28;19924;-24
2022/08/29 19:32:53;;;;;;;;;;;;;;;;;;5074642;28;19939;-24
2022/08/29 19:35:19;;;;;;;;;;;;;;;;;;5074640;28;19909;-24
2022/08/29 19:37:45;;;;;;;;;;;;;;;;;;5074341;28;19924;-24
2022/08/29 19:40:11;;;;;;;;;;;;;;;;;;5074484;28;19915;-24
2022/08/29 19:42:37;;;;;;;;;;;;;;;;;;5074344;28;19939;-24
2022/08/29 19:45:03;;;;;;;;;;;;;;;;;;5074667;28;19954;-24
2022/08/29 19:47:30;;;;;;;;;;;;;;;;;;5073978;28;19912;-24
2022/08/29 19:49:56;;;;;;;;;;;;;;;;;;5074073;28;19916;-24
2022/08/29 19:52:22;;;;;;;;;;;;;;;;;;5074224;28;19933;-24
2022/08/29 19:54:48;;;;;;;;;;;;;;;;;;5074036;28;20335;-24
2022/08/29 19:57:14;;;;;;;;;;;;;;;;;;5056367;28;20366;-24
2022/08/29 19:59:40;;;;;;;;;;;;;;;;;;5073993;28;19913;-24
2022/08/29 20:02:06;;;;;;;;;;;;;;;;;;5056761;28;20015;-23
2022/08/29 20:04:32;;;;;;;;;;;;;;;;;;5073872;28;19948;-24
2022/08/29 20:06:59;;;;;;;;;;;;;;;;;;5073573;28;20313;-24
2022/08/29 20:09:25;;;;;;;;;;;;;;;;;;5073657;28;19927;-23